Flight Track Log - Related Links

Times and Time Zones

All times are in EDT time to prevent confusion due to time zone crossing. See the N440DM flight status page for this flight to view local times or setup timezone preferences in your user account.

Time Position Orientation Groundspeed Altitude Reporting Facility
EDT Latitude Longitude Course Direction KTS MPH feet Rate Location/Type
Mon 02:24:01 PM 40.4828 -81.4675 182° South 307 353 16,300  Level Cleveland Center
Mon 02:25:00 PM 40.3303 -81.3834 176° South  Level Estimated
Mon 02:26:00 PM 40.2328 -81.3735 176° South  Level Estimated
Mon 02:26:02 PM 40.2908 -81.4703 181° South 366 421 21,100  Level Cleveland Center
Mon 02:27:00 PM 40.1354 -81.3636 176° South  Level Estimated
Mon 02:27:03 PM 40.1803 -81.4772 183° South 379 436 24,500  Level Cleveland Center
Mon 02:27:32 PM 40.1114 -81.4733 178° South 397 457 26,600 3,231 Climbing Indianapolis Center
Mon 02:28:34 PM 39.9989 -81.4686 178° South 399 459 29,400 2,677 Climbing Indianapolis Center
Mon 02:30:38 PM 39.7617 -81.4592 178° South 409 471 34,900 2,645 Climbing Indianapolis Center
Mon 02:31:40 PM 39.6575 -81.4556 178° South 405 466 37,600 2,226 Climbing Indianapolis Center
Mon 02:32:42 PM 39.5456 -81.4500 178° South 401 461 39,500 774 Climbing Indianapolis Center
Mon 02:34:00 PM 39.4189 -81.4358 175° South  Level Estimated
Mon 02:34:46 PM 39.2908 -81.4403 175° South 420 483 40,000  Level Indianapolis Center
Mon 02:36:00 PM 39.1707 -81.4267 175° South  Level Estimated
Mon 02:36:50 PM 39.0650 -81.4314 175° South 403 464 40,000  Level Indianapolis Center
Mon 02:37:52 PM 38.9492 -81.4275 179° South 412 474 40,000  Level Indianapolis Center
Mon 02:38:54 PM 38.8306 -81.4233 178° South 421 484 40,000  Level Indianapolis Center
Mon 02:39:56 PM 38.6922 -81.4211 179° South 428 493 40,000  Level Indianapolis Center
Mon 02:40:58 PM 38.5828 -81.4156 178° South 430 495 40,000  Level Indianapolis Center
Mon 02:42:00 PM 38.4656 -81.4108 178° South 419 482 40,000  Level Indianapolis Center
Mon 02:44:03 PM 38.2158 -81.4014 178° South 407 468 40,000  Level Indianapolis Center
Mon 02:45:05 PM 38.1003 -81.3992 179° South 412 474 40,000  Level Indianapolis Center
Mon 02:47:09 PM 37.8681 -81.3903 178° South 418 481 40,000  Level Indianapolis Center
Mon 02:48:11 PM 37.7442 -81.3853 178° South 417 480 40,000  Level Indianapolis Center
Mon 02:49:13 PM 37.6314 -81.3817 179° South 416 479 40,000  Level Indianapolis Center
Mon 02:50:15 PM 37.5178 -81.3772 178° South 419 482 40,000  Level Indianapolis Center
Mon 02:51:17 PM 37.3836 -81.3731 179° South 415 478 40,000  Level Indianapolis Center
Mon 02:52:18 PM 37.2614 -81.3675 178° South 414 476 40,000  Level Indianapolis Center
Mon 02:55:24 PM 36.9178 -81.3036 172° South 413 475 40,000  Level Indianapolis Center
Mon 02:56:34 PM 36.7758 -81.2786 172° South 420 483 40,000  Level Atlanta Center
Mon 02:57:34 PM 36.6669 -81.2592 172° South 410 472 40,000  Level Atlanta Center
Mon 02:58:34 PM 36.5483 -81.2608 181° South 416 479 40,000  Level Atlanta Center
Mon 02:59:34 PM 36.4461 -81.2617 180° South 416 479 40,000  Level Atlanta Center
Mon 03:00:34 PM 36.3292 -81.2581 179° South 422 486 40,000  Level Atlanta Center
Mon 03:03:34 PM 35.9808 -81.2519 179° South 422 486 40,000  Level Atlanta Center
Mon 03:04:34 PM 35.8639 -81.2508 180° South 422 486 40,000  Level Atlanta Center
Mon 03:05:34 PM 35.7344 -81.2503 180° South 417 480 40,000  Level Atlanta Center
Mon 03:06:34 PM 35.6133 -81.2467 179° South 430 495 40,000  Level Atlanta Center
Mon 03:08:00 PM 35.4585 -81.2972 195° South  Level FlightAware Approximate
Mon 03:08:34 PM 35.3819 -81.2444 195° South 436 502 40,000  Level Atlanta Center
Mon 03:09:34 PM 35.2650 -81.2433 180° South 430 495 40,000  Level Atlanta Center
Mon 03:10:34 PM 35.1439 -81.2422 180° South 430 495 40,000  Level Atlanta Center
Mon 03:12:00 PM 34.9837 -81.2476 182° South  Level FlightAware Approximate
Mon 03:12:39 PM 34.8853 -81.2400 182° South 431 496 40,000  Level Jacksonville Center
Mon 03:13:39 PM 34.7644 -81.2372 179° South 431 496 40,000  Level Jacksonville Center
Mon 03:15:00 PM 34.6139 -81.2500 184° South  Level FlightAware Approximate
Mon 03:15:39 PM 34.5392 -81.2342 184° South 441 507 40,000  Level Jacksonville Center
Mon 03:16:39 PM 34.4158 -81.2289 178° South 441 507 40,000  Level Jacksonville Center
Mon 03:17:39 PM 34.2947 -81.2261 179° South 441 507 40,000  Level Jacksonville Center
Mon 03:19:00 PM 34.1443 -81.2153 180° South  Level FlightAware Approximate
Mon 03:19:39 PM 34.0444 -81.2158 180° South 436 502 40,000  Level Jacksonville Center
Mon 03:21:00 PM 33.8923 -81.2142 179° South  Level FlightAware Approximate
Mon 03:21:39 PM 33.8022 -81.2106 179° South 436 502 40,000  Level Jacksonville Center
Mon 03:22:39 PM 33.6939 -81.2125 181° South 436 502 40,000  Level Jacksonville Center
Mon 03:23:39 PM 33.5747 -81.2097 179° South 436 502 40,000  Level Jacksonville Center
Mon 03:24:39 PM 33.4536 -81.2072 180° South 441 507 40,000  Level Jacksonville Center
Mon 03:25:00 PM 33.4225 -81.2083 180° South  Level FlightAware Approximate
Mon 03:25:39 PM 33.3325 -81.2019 178° South 436 502 40,000  Level Jacksonville Center
Mon 03:26:39 PM 33.2136 -81.2017 180° South 436 502 40,000  Level Jacksonville Center
Mon 03:27:39 PM 33.0925 -81.1967 179° South 436 502 40,000  Level Jacksonville Center
Mon 03:29:00 PM 32.9403 -81.1976 180° South  Level FlightAware Approximate
Mon 03:30:39 PM 32.7269 -81.1886 179° South 436 502 40,000  Level Jacksonville Center
Mon 03:32:00 PM 32.5762 -81.1635 172° South  Level Estimated
Mon 03:34:39 PM 32.2406 -81.1781 172° South 446 513 40,000  Level Jacksonville Center
Mon 03:35:39 PM 32.1194 -81.1731 178° South 441 507 40,000  Level Jacksonville Center
Mon 03:36:39 PM 32.0003 -81.1703 179° South 436 502 40,000  Level Jacksonville Center
Mon 03:38:00 PM 31.8481 -81.1681 179° South  Level FlightAware Approximate
Mon 03:38:39 PM 31.7622 -81.1675 179° South 436 502 40,000  Level Jacksonville Center
Mon 03:39:00 PM 31.7946 -81.0348 172° South  Level Estimated
Mon 03:40:00 PM 31.6100 -81.1653 179° South  Level FlightAware Approximate
Mon 03:40:00 PM 31.6829 -81.0166 172° South  Level Estimated
Mon 03:40:39 PM 31.5136 -81.1600 179° South 443 510 40,000  Level Jacksonville Center
Mon 03:41:39 PM 31.4050 -81.1569 179° South 438 504 40,000  Level Jacksonville Center
Mon 03:42:39 PM 31.2736 -81.1569 180° South 438 504 40,000  Level Jacksonville Center
Mon 03:43:39 PM 31.1544 -81.1544 179° South 438 504 40,000  Level Jacksonville Center
Mon 03:45:00 PM 31.0023 -81.1533 180° South  Level FlightAware Approximate
Mon 03:45:39 PM 30.9144 -81.1467 180° South 438 504 40,000  Level Jacksonville Center
Mon 03:47:00 PM 30.7623 -81.1481 180° South  Level FlightAware Approximate
Mon 03:47:39 PM 30.6742 -81.1414 180° South 432 497 40,000  Level Jacksonville Center
Mon 03:48:39 PM 30.5550 -81.1389 179° South 437 503 40,000 -33 Level Jacksonville Center
Mon 03:50:00 PM 30.4027 -81.1440 178° South  Level FlightAware Approximate
Mon 03:50:39 PM 30.3211 -81.1358 178° South 437 503 39,900  Level Jacksonville Center
Mon 03:52:00 PM 30.1690 -81.1304 178° South  Level FlightAware Approximate
Mon 03:52:39 PM 30.0867 -81.0922 178° South 432 497 40,000  Level Jacksonville Center
Mon 03:54:34 PM 29.8825 -80.9900 157° South 445 512 40,000  Level Miami Center
Mon 03:56:00 PM 29.7230 -81.0202 189° South  Level FlightAware Approximate
Mon 03:56:34 PM 29.6583 -80.8861 189° South 440 506 40,000  Level Miami Center
Mon 03:57:34 PM 29.5453 -80.8342 158° South 440 506 40,000  Level Miami Center
Mon 03:58:34 PM 29.4194 -80.7794 159° South 440 506 40,000  Level Miami Center
Mon 03:59:34 PM 29.3083 -80.7256 157° South 440 506 40,000  Level Miami Center
Mon 04:00:34 PM 29.1950 -80.6764 159° South 440 506 40,000  Level Miami Center
Mon 04:01:34 PM 29.0858 -80.6228 157° South 435 501 40,000  Level Miami Center
Mon 04:02:34 PM 28.9744 -80.5717 158° South 435 501 40,000  Level Miami Center
Mon 04:04:00 PM 28.8326 -80.4918 160° South  Level FlightAware Approximate
Mon 04:05:34 PM 28.6450 -80.4067 160° South 429 494 40,000  Level Miami Center
Mon 04:06:34 PM 28.5494 -80.3069 137° Southeast 445 512 39,800 -850 Descending Miami Center
Mon 04:07:34 PM 28.4406 -80.2328 149° Southeast 457 526 38,300 -1,567 Descending Miami Center
Mon 04:09:00 PM 28.3494 -80.0832 168° South  Level FlightAware Approximate
Mon 04:09:34 PM 28.1964 -80.1406 168° South 468 539 35,100  Level Miami Center
Mon 04:11:00 PM 28.0386 -80.1430 164° South  Level Estimated
Mon 04:15:34 PM 27.4578 -79.8386 110° East 468 539 25,000  Level Miami Center
Mon 04:17:00 PM 27.3116 -79.7719 158° South  Level FlightAware Approximate
Mon 04:18:00 PM 27.2682 -80.1547 166° South  Level Estimated
Mon 04:18:34 PM 27.1031 -79.7128 158° South 451 519 19,100  Level Miami Center
Mon 04:19:00 PM 27.1582 -80.1563 165° South  Level Estimated
Mon 04:20:00 PM 27.1196 -80.0405 110° East  Level FlightAware Approximate
Mon 04:20:34 PM 26.8664 -79.6442 165° South 426 490 16,500  Level Miami Center
Mon 04:21:34 PM 26.7656 -79.6719 194° South 400 460 14,300 -2,650 Descending Miami Center
Mon 04:22:34 PM 26.6644 -79.7231 204° Southwest 381 438 11,200 -2,950 Descending Miami Center
Mon 04:23:34 PM 26.5842 -79.7628 204° Southwest 359 413 8,400 -1,600 Descending Miami Center
Mon 04:24:34 PM 26.5019 -79.8025 203° Southwest 318 366 8,000 -306 Descending Miami Center
Mon 04:25:12 PM 26.4514 -79.8244 201° Southwest 278 320 7,900  Descending Miami Center
Mon 04:25:34 PM 26.4364 -79.8336 209° Southwest 290 334 8,000  Climbing Miami Center
Mon 04:26:13 PM 26.3839 -79.8600 204° Southwest 273 314 7,900 -400 Descending Miami Center
Mon 04:26:34 PM 26.3647 -79.8733 212° Southwest 273 314 7,600 -1,645 Descending Miami Center
Mon 04:27:15 PM 26.3261 -79.9164 225° Southwest 264 304 6,200 -1,700 Descending Miami Center
Mon 04:27:34 PM 26.3197 -79.9278 238° Southwest 268 308 5,900 -1,869 Descending Miami Center
Mon 04:28:16 PM 26.2914 -79.9875 242° Southwest 259 298 4,300 -1,061 Descending Miami Center
Mon 04:30:18 PM 26.2678 -80.1119 258° West 163 188 3,000 -590 Descending Miami Center
Mon 04:31:19 PM 26.2642 -80.1697 266° West 177 204 2,500 -553 Descending Miami Center
Mon 04:31:34 PM 26.2661 -80.1789 283° West 178 205 2,300 -448 Descending Miami Center
Mon 04:32:26 PM 26.2608 -80.2253 263° West 163 188 2,000 -604 Descending Miami Center
Mon 04:34:00 PM 26.1973 -80.1707 90° East  Level Estimated
Mon 04:34:23 PM 26.1922 -80.2139 90° East 180 207 600  Level Miami Center
Mon 04:36:00 PM 26.1833 -80.1667 90° East  Level FlightAware Approximate
Mon 04:43:00 PM 26.1973 -80.1707 90° East  Level Estimated
Mon 04:44:00 PM 26.1973 -80.1707 90° East  Level Estimated
Mon 04:45:00 PM 26.1973 -80.1707 90° East  Level Estimated
Mon 04:46:00 PM 26.1973 -80.1707 90° East  Level Estimated
Mon 04:47:00 PM 26.1973 -80.1707 90° East  Level Estimated
Mon 04:48:00 PM 26.1973 -80.1707 90° East  Level Estimated
Mon 04:49:00 PM 26.1973 -80.1707 90° East  Level Estimated
Mon 04:50:00 PM 26.1973 -80.1707 90° East  Level Estimated
Mon 04:51:00 PM 26.1973 -80.1707 90° East  Level Estimated
Mon 04:52:00 PM 26.1973 -80.1707 90° East  Level Estimated
Mon 04:53:00 PM 26.1973 -80.1707 90° East  Level Estimated
Mon 04:54:00 PM 26.1973 -80.1707 90° East  Level Estimated
Mon 04:55:00 PM 26.1973 -80.1707 90° East  Level Estimated
Mon 04:56:00 PM 26.1973 -80.1707 90° East  Level Estimated
Mon 04:57:00 PM 26.1973 -80.1707 90° East  Level Estimated

Login

Don't have an account? Register now (free) for customized features, flight alerts, and more!